createdAt,value
2022-10-30T00:00:00.805Z,47.04
2022-10-30T00:02:28.033Z,46.96
2022-10-30T00:04:55.486Z,46.98
2022-10-30T00:07:22.622Z,47.32
2022-10-30T00:09:49.745Z,46.98
2022-10-30T00:12:17.140Z,47.00
2022-10-30T00:14:44.808Z,46.65
2022-10-30T00:17:11.950Z,47.89
2022-10-30T00:19:39.371Z,46.93
2022-10-30T00:24:32.499Z,47.32
2022-10-30T00:26:59.887Z,47.15
2022-10-30T00:29:27.039Z,46.94
2022-10-30T00:31:54.204Z,48.91
2022-10-30T00:34:21.619Z,48.59
2022-10-30T00:36:48.754Z,48.58
2022-10-30T00:39:16.559Z,48.50
2022-10-30T00:41:45.128Z,48.54
2022-10-30T00:44:31.034Z,47.56
2022-10-30T00:46:59.016Z,46.27
2022-10-30T00:49:26.825Z,48.89
2022-10-30T00:51:53.969Z,47.86
2022-10-30T00:54:21.426Z,47.51
2022-10-30T00:56:48.660Z,47.63
2022-10-30T00:59:18.456Z,47.73
2022-10-30T01:01:45.917Z,48.42
2022-10-30T01:04:13.109Z,49.74
2022-10-30T01:06:41.059Z,49.11
2022-10-30T01:09:08.691Z,48.27
2022-10-30T01:11:35.897Z,48.03
2022-10-30T01:14:04.683Z,49.62
2022-10-30T01:16:38.031Z,51.70
2022-10-30T01:19:05.314Z,51.04
2022-10-30T01:21:45.040Z,50.75
2022-10-30T01:24:35.576Z,50.91
2022-10-30T01:27:02.906Z,50.10
2022-10-30T01:29:50.255Z,49.50
2022-10-30T01:32:24.273Z,48.35
2022-10-30T01:35:10.365Z,48.26
2022-10-30T01:37:50.291Z,48.50
2022-10-30T01:40:17.931Z,48.38
2022-10-30T01:42:50.274Z,48.57
2022-10-30T01:45:19.730Z,48.28
2022-10-30T01:48:05.713Z,46.93
2022-10-30T01:50:38.685Z,47.69
2022-10-30T01:53:17.155Z,48.13
2022-10-30T01:55:50.383Z,48.39
2022-10-30T01:58:19.622Z,47.87
2022-10-30T02:00:51.393Z,49.12
2022-10-30T02:03:19.334Z,50.11
2022-10-30T02:05:48.387Z,49.94
2022-10-30T02:08:17.521Z,49.27
2022-10-30T02:10:45.808Z,48.41
2022-10-30T02:13:13.104Z,48.72
2022-10-30T02:15:42.071Z,48.51
2022-10-30T02:18:09.627Z,48.97
2022-10-30T02:20:37.118Z,46.74
2022-10-30T02:23:05.135Z,49.31
2022-10-30T02:25:32.963Z,49.65
2022-10-30T02:28:00.159Z,48.99
2022-10-30T02:30:27.509Z,48.09
2022-10-30T02:32:55.215Z,48.31
2022-10-30T02:35:22.665Z,47.63
2022-10-30T02:37:50.148Z,48.42
2022-10-30T02:40:17.542Z,48.53
2022-10-30T02:42:44.717Z,48.05
2022-10-30T02:45:11.907Z,47.67
2022-10-30T02:47:39.370Z,48.68
2022-10-30T02:50:06.832Z,48.27
2022-10-30T02:52:37.726Z,48.57
2022-10-30T02:55:05.368Z,49.25
2022-10-30T02:57:35.378Z,49.40
2022-10-30T03:00:02.554Z,48.54
2022-10-30T03:02:30.183Z,49.58
2022-10-30T03:04:57.330Z,49.79
2022-10-30T03:07:25.518Z,49.20
2022-10-30T03:09:54.441Z,48.23
2022-10-30T03:12:21.936Z,49.37
2022-10-30T03:14:49.088Z,51.09
2022-10-30T03:17:16.486Z,50.33
2022-10-30T03:19:43.885Z,50.43
2022-10-30T03:22:11.023Z,51.31
2022-10-30T03:24:38.612Z,49.70
2022-10-30T03:27:05.759Z,49.48
2022-10-30T03:29:32.922Z,50.06
2022-10-30T03:32:00.795Z,49.04
2022-10-30T03:34:29.274Z,49.31
2022-10-30T03:36:56.473Z,49.33
2022-10-30T03:39:23.895Z,52.54
2022-10-30T03:41:51.117Z,50.83
2022-10-30T03:44:18.258Z,51.42
2022-10-30T03:46:45.681Z,50.94
2022-10-30T03:49:14.109Z,49.71
2022-10-30T03:51:41.244Z,52.12
2022-10-30T03:54:09.158Z,50.78
2022-10-30T03:56:36.441Z,49.79
2022-10-30T03:59:04.087Z,50.23
2022-10-30T04:01:31.682Z,51.25
2022-10-30T04:04:00.044Z,52.21
2022-10-30T04:06:27.221Z,52.72
2022-10-30T04:08:56.459Z,51.05
2022-10-30T04:11:24.160Z,50.94
2022-10-30T04:13:51.339Z,52.71
2022-10-30T04:16:18.490Z,51.85
2022-10-30T04:18:45.929Z,52.01
2022-10-30T04:21:13.133Z,51.69
2022-10-30T04:23:40.432Z,51.23
2022-10-30T04:26:09.177Z,52.15
2022-10-30T04:28:36.849Z,51.21
2022-10-30T04:31:04.077Z,51.73
2022-10-30T04:33:32.633Z,50.74
2022-10-30T04:36:00.395Z,53.74
2022-10-30T04:38:27.663Z,53.16
2022-10-30T04:40:56.354Z,52.62
2022-10-30T04:43:26.698Z,52.15
2022-10-30T04:45:53.943Z,51.67
2022-10-30T04:48:21.364Z,51.64
2022-10-30T04:50:48.506Z,52.33
2022-10-30T04:53:18.191Z,51.29
2022-10-30T04:55:46.138Z,50.18
2022-10-30T04:58:13.784Z,49.15
2022-10-30T05:00:41.515Z,48.42
2022-10-30T05:03:09.573Z,48.84
2022-10-30T05:05:36.992Z,49.34
2022-10-30T05:08:04.258Z,48.91
2022-10-30T05:10:31.721Z,48.26
2022-10-30T05:13:00.171Z,47.85
2022-10-30T05:15:27.403Z,48.32
2022-10-30T05:17:54.842Z,49.58
2022-10-30T05:20:22.289Z,50.40
2022-10-30T05:22:55.991Z,50.18
2022-10-30T05:25:23.965Z,50.22
2022-10-30T05:27:51.589Z,51.45
2022-10-30T05:30:18.928Z,51.26
2022-10-30T05:32:46.666Z,50.58
2022-10-30T05:35:13.883Z,49.56
2022-10-30T05:37:41.218Z,50.35
2022-10-30T05:40:08.837Z,50.58
2022-10-30T05:42:36.150Z,51.12
2022-10-30T05:45:03.516Z,50.96
2022-10-30T05:47:31.495Z,50.81
2022-10-30T05:49:58.812Z,50.25
2022-10-30T05:52:26.283Z,49.86
2022-10-30T05:54:53.754Z,49.81
2022-10-30T05:57:21.636Z,49.92
2022-10-30T05:59:48.840Z,49.03
2022-10-30T06:02:19.185Z,48.41
2022-10-30T06:04:47.168Z,48.73
2022-10-30T06:07:14.531Z,50.17
2022-10-30T06:09:41.815Z,50.03
2022-10-30T06:12:09.439Z,49.47
2022-10-30T06:14:37.152Z,49.65
2022-10-30T06:17:04.554Z,49.53
2022-10-30T06:19:32.448Z,48.93
2022-10-30T06:22:00.393Z,48.22
2022-10-30T06:24:27.733Z,48.55
2022-10-30T06:26:55.488Z,48.03
2022-10-30T06:29:23.646Z,48.81
2022-10-30T06:31:50.977Z,48.84
2022-10-30T06:34:18.409Z,48.14
2022-10-30T06:36:45.675Z,50.20
2022-10-30T06:39:12.842Z,49.07
2022-10-30T06:41:41.248Z,48.70
2022-10-30T06:44:08.555Z,48.57
2022-10-30T06:46:36.033Z,48.66
2022-10-30T06:49:03.454Z,48.37
2022-10-30T06:51:30.945Z,47.73
2022-10-30T06:53:58.514Z,47.93
2022-10-30T06:56:26.787Z,47.93
2022-10-30T06:58:53.968Z,47.61
2022-10-30T07:01:21.201Z,47.43
2022-10-30T07:03:51.772Z,47.80
2022-10-30T07:06:18.962Z,47.53
2022-10-30T07:08:46.515Z,47.27
2022-10-30T07:11:14.095Z,47.11
2022-10-30T07:13:41.334Z,47.29
2022-10-30T07:16:08.601Z,46.83
2022-10-30T07:18:36.055Z,47.73
2022-10-30T07:21:03.216Z,48.10
2022-10-30T07:23:31.381Z,47.30
2022-10-30T07:26:03.496Z,46.96
2022-10-30T07:28:31.704Z,48.06
2022-10-30T07:31:01.232Z,47.39
2022-10-30T07:33:29.478Z,47.24
2022-10-30T07:35:56.677Z,46.97
2022-10-30T07:38:24.256Z,47.14
2022-10-30T07:40:52.354Z,47.65
2022-10-30T07:43:19.891Z,46.77
2022-10-30T07:45:47.363Z,46.42
2022-10-30T07:48:15.180Z,46.99
2022-10-30T07:50:43.225Z,46.80
2022-10-30T07:53:10.672Z,46.72
2022-10-30T07:55:37.825Z,46.58
2022-10-30T07:58:07.175Z,47.43
2022-10-30T08:00:36.215Z,46.43
2022-10-30T08:03:04.116Z,45.80
2022-10-30T08:05:33.457Z,46.18
2022-10-30T08:08:01.446Z,45.58
2022-10-30T08:10:29.285Z,48.30
2022-10-30T08:12:57.373Z,48.03
2022-10-30T08:15:24.543Z,48.20
2022-10-30T08:17:52.247Z,52.30
2022-10-30T08:20:21.200Z,50.93
2022-10-30T08:22:49.016Z,48.23
2022-10-30T08:25:17.990Z,47.88
2022-10-30T08:27:51.254Z,46.98
2022-10-30T08:30:18.879Z,46.29
2022-10-30T08:32:46.427Z,46.90
2022-10-30T08:35:20.023Z,48.43
2022-10-30T08:37:47.911Z,47.77
2022-10-30T08:40:15.172Z,47.36
2022-10-30T08:42:43.084Z,47.44
2022-10-30T08:45:10.794Z,47.09
2022-10-30T08:47:38.910Z,47.76
2022-10-30T08:50:07.180Z,48.47
2022-10-30T08:52:34.847Z,46.41
2022-10-30T08:55:02.049Z,49.07
2022-10-30T08:57:29.822Z,47.70
2022-10-30T08:59:57.427Z,46.58
2022-10-30T09:02:26.752Z,47.49
2022-10-30T09:04:58.834Z,48.47
2022-10-30T09:07:27.376Z,48.26
2022-10-30T09:09:56.487Z,48.52
2022-10-30T09:12:24.090Z,47.59
2022-10-30T09:14:51.473Z,46.70
2022-10-30T09:17:18.981Z,47.06
2022-10-30T09:22:20.468Z,49.27
2022-10-30T09:24:48.159Z,48.71
2022-10-30T09:27:16.460Z,48.41
2022-10-30T09:29:44.304Z,47.03
2022-10-30T09:32:14.113Z,48.01
2022-10-30T09:34:41.776Z,48.80
2022-10-30T09:37:09.614Z,48.87
2022-10-30T09:39:36.958Z,48.33
2022-10-30T09:42:23.353Z,47.45
2022-10-30T09:45:27.403Z,47.15
2022-10-30T09:48:09.453Z,48.26
2022-10-30T09:50:43.510Z,46.94
2022-10-30T09:53:15.718Z,50.03
2022-10-30T09:56:02.180Z,48.80
2022-10-30T09:58:48.922Z,47.43
2022-10-30T10:01:17.836Z,49.50
2022-10-30T10:04:06.956Z,49.45
2022-10-30T10:06:34.494Z,48.66
2022-10-30T10:09:04.916Z,48.09
2022-10-30T10:11:37.280Z,48.34
2022-10-30T10:14:08.621Z,49.73
2022-10-30T10:16:36.796Z,49.81
2022-10-30T10:19:13.156Z,52.18
2022-10-30T10:21:43.156Z,50.55
2022-10-30T10:24:19.726Z,51.36
2022-10-30T10:26:50.074Z,51.06
2022-10-30T10:29:17.153Z,51.27
2022-10-30T10:31:50.072Z,49.59
2022-10-30T10:34:27.115Z,48.91
2022-10-30T10:36:54.139Z,48.77
2022-10-30T10:39:53.809Z,48.64
2022-10-30T10:42:34.463Z,47.71
2022-10-30T10:45:28.286Z,47.89
2022-10-30T10:48:07.670Z,48.20
2022-10-30T10:50:36.790Z,47.52
2022-10-30T10:53:11.214Z,48.78
2022-10-30T10:55:39.040Z,47.94
2022-10-30T10:58:07.727Z,48.53
2022-10-30T11:00:34.853Z,48.58
2022-10-30T11:06:01.151Z,49.87
2022-10-30T11:08:29.398Z,48.41
2022-10-30T11:10:57.632Z,48.47
2022-10-30T11:13:51.117Z,47.82
2022-10-30T11:16:41.526Z,47.61
2022-10-30T11:19:08.884Z,47.59
2022-10-30T11:21:38.586Z,47.73
2022-10-30T11:24:09.581Z,46.69
2022-10-30T11:26:36.984Z,46.63
2022-10-30T11:29:13.809Z,48.29
2022-10-30T11:31:42.040Z,48.82
2022-10-30T11:34:18.236Z,50.24
2022-10-30T11:36:46.269Z,50.92
2022-10-30T11:39:29.754Z,50.33
2022-10-30T11:42:15.861Z,49.17
2022-10-30T11:44:43.802Z,47.96
2022-10-30T11:47:11.685Z,46.83
2022-10-30T11:49:42.102Z,47.19
2022-10-30T11:52:09.249Z,46.18
2022-10-30T11:54:37.935Z,48.19
2022-10-30T11:57:05.106Z,48.21
2022-10-30T11:59:32.242Z,46.38
2022-10-30T12:02:03.877Z,48.68
2022-10-30T12:04:33.075Z,52.95
2022-10-30T12:07:09.130Z,50.67
2022-10-30T12:09:43.636Z,49.09
2022-10-30T12:12:11.984Z,48.74
2022-10-30T12:14:39.526Z,46.80
2022-10-30T12:17:06.700Z,47.97
2022-10-30T12:19:33.840Z,48.50
2022-10-30T12:22:01.575Z,47.90
2022-10-30T12:24:46.776Z,47.53
2022-10-30T12:27:18.197Z,46.00
2022-10-30T12:30:09.284Z,46.63
2022-10-30T12:32:59.164Z,46.83
2022-10-30T12:35:35.613Z,49.03
2022-10-30T12:38:03.281Z,48.25
2022-10-30T12:40:30.941Z,47.58
2022-10-30T12:43:06.105Z,48.25
2022-10-30T12:45:41.183Z,47.47
2022-10-30T12:48:12.286Z,48.80
2022-10-30T12:50:44.690Z,48.71
2022-10-30T12:53:14.841Z,47.55
2022-10-30T12:55:46.374Z,45.87
2022-10-30T12:58:32.366Z,47.78
2022-10-30T13:01:18.943Z,48.63
2022-10-30T13:03:50.642Z,47.56
2022-10-30T13:06:19.446Z,48.13
2022-10-30T13:09:05.079Z,46.88
2022-10-30T13:11:37.499Z,47.33
2022-10-30T13:14:04.620Z,46.74
2022-10-30T13:16:31.791Z,46.03
2022-10-30T13:19:02.942Z,46.68
2022-10-30T13:24:13.142Z,46.91
2022-10-30T13:26:42.978Z,46.59
2022-10-30T13:29:25.348Z,45.58
2022-10-30T13:32:18.852Z,46.82
2022-10-30T13:34:49.384Z,46.87
2022-10-30T13:37:28.489Z,47.15
2022-10-30T13:40:16.904Z,49.44
2022-10-30T13:42:47.159Z,50.86
2022-10-30T13:45:33.220Z,48.00
2022-10-30T13:48:03.102Z,50.34
2022-10-30T13:50:33.609Z,51.85
2022-10-30T13:53:01.917Z,50.67
2022-10-30T13:55:30.027Z,51.50
2022-10-30T13:57:57.370Z,50.86
2022-10-30T14:00:33.490Z,49.71
2022-10-30T14:03:06.270Z,49.62
2022-10-30T14:05:35.953Z,49.38
2022-10-30T14:08:06.552Z,49.20
2022-10-30T14:10:46.918Z,49.01
2022-10-30T14:13:27.001Z,47.56
2022-10-30T14:15:55.512Z,50.81
2022-10-30T14:18:27.263Z,50.35
2022-10-30T14:20:55.724Z,48.72
2022-10-30T14:23:24.236Z,48.34
2022-10-30T14:26:06.667Z,47.80
2022-10-30T14:28:35.183Z,48.30
2022-10-30T14:31:10.183Z,47.90
2022-10-30T14:33:40.559Z,48.43
2022-10-30T14:36:18.442Z,46.53
2022-10-30T14:38:55.975Z,47.17
2022-10-30T14:41:32.268Z,48.02
2022-10-30T14:44:03.445Z,49.21
2022-10-30T14:46:34.779Z,48.01
2022-10-30T14:49:04.238Z,47.97
2022-10-30T14:51:31.329Z,48.17
2022-10-30T14:54:01.454Z,51.07
2022-10-30T14:56:31.853Z,50.96
2022-10-30T14:59:22.137Z,49.30
2022-10-30T15:02:08.253Z,48.21
2022-10-30T15:04:51.953Z,46.48
2022-10-30T15:07:25.635Z,46.78
2022-10-30T15:10:11.324Z,47.73
2022-10-30T15:12:47.781Z,48.90
2022-10-30T15:15:15.605Z,48.50
2022-10-30T15:17:43.748Z,47.58
2022-10-30T15:20:18.659Z,47.53
2022-10-30T15:22:47.621Z,47.58
2022-10-30T15:25:16.199Z,47.56
2022-10-30T15:27:43.345Z,47.26
2022-10-30T15:30:18.230Z,46.34
2022-10-30T15:32:45.666Z,46.15
2022-10-30T15:35:31.971Z,46.48
2022-10-30T15:38:03.381Z,46.58
2022-10-30T15:40:31.237Z,45.82
2022-10-30T15:42:59.503Z,45.18
2022-10-30T15:45:34.180Z,45.52
2022-10-30T15:48:04.731Z,45.31
2022-10-30T15:50:32.494Z,44.94
2022-10-30T15:52:59.745Z,45.60
2022-10-30T15:55:30.906Z,44.79
2022-10-30T15:58:03.897Z,45.12
2022-10-30T16:00:33.720Z,46.31
2022-10-30T16:03:05.526Z,46.48
2022-10-30T16:05:33.005Z,46.93
2022-10-30T16:08:02.046Z,47.88
2022-10-30T16:10:31.749Z,47.50
2022-10-30T16:12:59.346Z,47.22
2022-10-30T16:15:30.838Z,47.52
2022-10-30T16:18:00.456Z,47.70
2022-10-30T16:20:28.004Z,46.36
2022-10-30T16:22:55.273Z,46.43
2022-10-30T16:25:22.423Z,45.53
2022-10-30T16:27:49.833Z,46.81
2022-10-30T16:30:17.059Z,47.71
2022-10-30T16:32:46.111Z,47.75
2022-10-30T16:35:13.630Z,47.25
2022-10-30T16:37:40.838Z,48.07
2022-10-30T16:40:16.054Z,46.87
2022-10-30T16:42:49.619Z,47.66
2022-10-30T16:45:20.069Z,46.92
2022-10-30T16:47:50.814Z,46.77
2022-10-30T16:50:18.305Z,46.64
2022-10-30T16:52:45.647Z,46.79
2022-10-30T16:55:15.798Z,46.82
2022-10-30T16:57:43.768Z,47.23
2022-10-30T17:00:26.057Z,46.26
2022-10-30T17:02:55.913Z,45.61
2022-10-30T17:05:25.630Z,46.04
2022-10-30T17:07:56.701Z,46.24
2022-10-30T17:10:34.951Z,45.38
2022-10-30T17:13:20.865Z,45.52
2022-10-30T17:15:48.323Z,45.42
2022-10-30T17:18:16.166Z,45.46
2022-10-30T17:20:44.607Z,46.04
2022-10-30T17:23:16.929Z,47.00
2022-10-30T17:25:44.474Z,46.77
2022-10-30T17:28:26.248Z,47.12
2022-10-30T17:30:53.473Z,48.38
2022-10-30T17:33:24.629Z,48.07
2022-10-30T17:38:20.550Z,47.86
2022-10-30T17:40:48.404Z,46.23
2022-10-30T17:43:16.035Z,46.00
2022-10-30T17:45:43.534Z,46.81
2022-10-30T17:48:15.109Z,45.71
2022-10-30T17:50:42.793Z,46.23
2022-10-30T17:53:14.781Z,45.76
2022-10-30T17:55:42.772Z,45.42
2022-10-30T17:58:10.209Z,44.90
2022-10-30T18:00:37.874Z,45.89
2022-10-30T18:03:10.541Z,47.26
2022-10-30T18:05:37.948Z,47.75
2022-10-30T18:08:05.379Z,47.70
2022-10-30T18:10:33.004Z,47.74
2022-10-30T18:13:00.449Z,47.68
2022-10-30T18:15:29.877Z,48.22
2022-10-30T18:17:57.709Z,48.14
2022-10-30T18:20:25.640Z,47.40
2022-10-30T18:22:54.541Z,46.93
2022-10-30T18:25:23.795Z,48.30
2022-10-30T18:27:51.615Z,48.00
2022-10-30T18:30:19.724Z,47.29
2022-10-30T18:32:47.046Z,47.18
2022-10-30T18:35:35.047Z,48.95
2022-10-30T18:38:03.132Z,47.42
2022-10-30T18:40:30.753Z,46.59
2022-10-30T18:42:59.047Z,46.30
2022-10-30T18:45:28.046Z,45.68
2022-10-30T18:47:56.530Z,47.02
2022-10-30T18:50:24.596Z,46.42
2022-10-30T18:52:53.823Z,46.16
2022-10-30T18:55:25.762Z,45.78
2022-10-30T18:57:53.660Z,45.52
2022-10-30T19:00:26.580Z,46.19
2022-10-30T19:02:55.677Z,47.09
2022-10-30T19:05:31.424Z,46.97
2022-10-30T19:08:01.386Z,47.33
2022-10-30T19:10:30.192Z,46.50
2022-10-30T19:13:11.933Z,47.70
2022-10-30T19:15:41.745Z,48.79
2022-10-30T19:18:09.190Z,48.27
2022-10-30T19:20:58.524Z,47.00
2022-10-30T19:23:28.187Z,46.90
2022-10-30T19:25:57.033Z,46.53
2022-10-30T19:28:25.756Z,46.50
2022-10-30T19:30:55.114Z,46.42
2022-10-30T19:33:23.298Z,46.46
2022-10-30T19:35:55.094Z,45.84
2022-10-30T19:38:22.597Z,49.43
2022-10-30T19:40:50.254Z,46.74
2022-10-30T19:43:18.242Z,46.26
2022-10-30T19:45:47.226Z,46.67
2022-10-30T19:48:20.718Z,46.48
2022-10-30T19:50:52.690Z,46.79
2022-10-30T19:53:20.686Z,46.30
2022-10-30T19:55:49.293Z,46.04
2022-10-30T19:58:18.773Z,47.47
2022-10-30T20:00:48.777Z,49.89
2022-10-30T20:03:19.207Z,48.50
2022-10-30T20:05:47.545Z,47.75
2022-10-30T20:08:16.743Z,48.97
2022-10-30T20:10:49.250Z,48.23
2022-10-30T20:13:16.993Z,47.90
2022-10-30T20:15:44.819Z,50.43
2022-10-30T20:18:14.192Z,50.38
2022-10-30T20:20:45.587Z,51.13
2022-10-30T20:23:13.375Z,48.65
2022-10-30T20:25:40.645Z,48.42
2022-10-30T20:28:24.438Z,48.82
2022-10-30T20:30:52.760Z,48.02
2022-10-30T20:33:20.656Z,48.16
2022-10-30T20:35:48.382Z,48.07
2022-10-30T20:38:20.007Z,48.85
2022-10-30T20:40:47.798Z,47.73
2022-10-30T20:43:16.180Z,48.35
2022-10-30T20:45:43.777Z,47.54
2022-10-30T20:48:11.746Z,47.13
2022-10-30T20:50:39.410Z,46.98
2022-10-30T20:53:07.111Z,48.74
2022-10-30T20:55:35.202Z,51.07
2022-10-30T20:58:03.058Z,49.34
2022-10-30T21:00:30.748Z,47.97
2022-10-30T21:02:58.908Z,47.95
2022-10-30T21:08:14.770Z,46.93
2022-10-30T21:10:42.152Z,47.90
2022-10-30T21:13:10.980Z,48.66
2022-10-30T21:15:42.530Z,47.94
2022-10-30T21:18:10.589Z,49.61
2022-10-30T21:20:38.511Z,52.50
2022-10-30T21:23:06.375Z,48.53
2022-10-30T21:25:34.102Z,49.34
2022-10-30T21:28:01.471Z,48.12
2022-10-30T21:30:29.205Z,49.46
2022-10-30T21:32:56.361Z,50.19
2022-10-30T21:35:23.987Z,49.37
2022-10-30T21:37:51.464Z,49.43
2022-10-30T21:40:18.589Z,48.50
2022-10-30T21:42:48.910Z,47.82
2022-10-30T21:45:16.418Z,47.70
2022-10-30T21:47:43.540Z,47.69
2022-10-30T21:50:12.613Z,51.25
2022-10-30T21:52:40.717Z,50.76
2022-10-30T21:55:08.096Z,49.25
2022-10-30T21:57:35.237Z,49.23
2022-10-30T22:00:05.658Z,49.22
2022-10-30T22:02:35.355Z,49.62
2022-10-30T22:05:02.498Z,48.99
2022-10-30T22:07:29.640Z,48.99
2022-10-30T22:09:57.072Z,46.54
2022-10-30T22:12:24.217Z,47.36
2022-10-30T22:14:51.340Z,48.30
2022-10-30T22:17:18.760Z,49.64
2022-10-30T22:19:45.905Z,49.03
2022-10-30T22:22:13.093Z,49.71
2022-10-30T22:24:40.524Z,49.37
2022-10-30T22:27:07.688Z,49.05
2022-10-30T22:29:34.863Z,47.95
2022-10-30T22:32:02.318Z,48.50
2022-10-30T22:34:29.468Z,48.63
2022-10-30T22:36:56.580Z,47.93
2022-10-30T22:39:24.192Z,47.59
2022-10-30T22:41:51.329Z,49.07
2022-10-30T22:44:18.992Z,50.39
2022-10-30T22:46:46.419Z,49.98
2022-10-30T22:49:13.552Z,53.96
2022-10-30T22:51:40.683Z,53.29
2022-10-30T22:54:09.890Z,51.49
2022-10-30T22:56:37.317Z,50.13
2022-10-30T22:59:05.439Z,50.54
2022-10-30T23:01:33.623Z,49.84
2022-10-30T23:04:01.303Z,50.62
2022-10-30T23:06:28.888Z,50.82
2022-10-30T23:08:57.323Z,52.07
2022-10-30T23:11:24.515Z,50.11
2022-10-30T23:13:51.771Z,49.86
2022-10-30T23:16:19.833Z,49.89
2022-10-30T23:18:47.097Z,49.42
2022-10-30T23:21:24.263Z,49.02
2022-10-30T23:23:51.723Z,50.39
2022-10-30T23:26:25.762Z,49.55
2022-10-30T23:28:53.780Z,50.05
2022-10-30T23:31:20.852Z,49.39
2022-10-30T23:33:51.153Z,50.60
2022-10-30T23:36:18.558Z,50.94
2022-10-30T23:38:49.945Z,50.54
2022-10-30T23:41:17.097Z,49.32
2022-10-30T23:43:44.484Z,49.82
2022-10-30T23:46:11.632Z,50.18
2022-10-30T23:48:38.773Z,49.10
2022-10-30T23:51:07.003Z,49.54
2022-10-30T23:53:34.130Z,48.54
2022-10-30T23:56:01.506Z,48.70
2022-10-30T23:58:28.919Z,48.08
